Time;durP1;ratioP1;P1;durP2;ratioP2;P2;SDS_P1;SDS_P2;PMS_P1;PMS_P2;Temp;Humidity;BMP_temperature;BMP_pressure;BME280_temperature;BME280_humidity;BME280_pressure;Samples;Min_cycle;Max_cycle;Signal;HPM_P1;HPM_P2
2022/09/30 00:01:24;;;;;;;3.17;2.10;;;10.30;99.90;;;;;;5016389;28;20198;-76
2022/09/30 00:03:53;;;;;;;2.67;2.30;;;10.30;99.90;;;;;;5015852;28;20189;-76
2022/09/30 00:06:27;;;;;;;2.27;1.90;;;10.20;99.90;;;;;;5018234;28;20194;-75
2022/09/30 00:08:53;;;;;;;4.03;2.10;;;10.20;99.90;;;;;;5006862;28;20180;-76
2022/09/30 00:11:24;;;;;;;3.67;1.77;;;10.20;99.90;;;;;;5017175;28;20266;-76
2022/09/30 00:13:54;;;;;;;3.97;2.00;;;10.20;99.90;;;;;;5015334;28;20179;-75
2022/09/30 00:16:21;;;;;;;2.77;2.00;;;10.10;99.90;;;;;;5016870;28;20281;-76
2022/09/30 00:18:47;;;;;;;3.03;2.10;;;10.10;99.90;;;;;;5036331;28;20283;-76
2022/09/30 00:21:15;;;;;;;3.00;2.20;;;10.10;99.90;;;;;;5017055;28;20171;-76
2022/09/30 00:23:42;;;;;;;2.40;1.90;;;10.10;99.90;;;;;;5029152;28;20176;-76
2022/09/30 00:26:14;;;;;;;2.10;1.80;;;10.00;99.90;;;;;;5017111;28;20234;-76
2022/09/30 00:28:40;;;;;;;2.67;1.90;;;10.00;99.90;;;;;;5017413;28;20167;-76
2022/09/30 00:31:10;;;;;;;2.43;1.90;;;10.00;99.90;;;;;;5017399;28;20213;-76
2022/09/30 00:33:39;;;;;;;3.97;1.93;;;10.00;99.90;;;;;;5029309;28;20201;-72
2022/09/30 00:36:07;;;;;;;4.17;2.03;;;10.00;99.90;;;;;;5018010;28;20255;-76
2022/09/30 00:38:33;;;;;;;2.10;1.90;;;9.90;99.90;;;;;;5009400;28;20175;-76
2022/09/30 00:41:04;;;;;;;3.03;1.97;;;9.90;99.90;;;;;;5004067;28;20224;-77
2022/09/30 00:43:52;;;;;;;2.17;1.80;;;9.90;99.90;;;;;;5015075;28;20190;-76
2022/09/30 00:46:27;;;;;;;2.80;2.00;;;9.90;99.90;;;;;;5016665;28;20242;-75
2022/09/30 00:48:55;;;;;;;2.90;1.80;;;9.80;99.90;;;;;;5015989;28;20271;-76
2022/09/30 00:51:33;;;;;;;2.37;1.80;;;9.80;99.90;;;;;;4999866;28;20179;-76
2022/09/30 00:54:09;;;;;;;3.57;2.00;;;9.70;99.90;;;;;;5018225;28;20186;-77
2022/09/30 00:56:43;;;;;;;2.80;1.70;;;9.80;99.90;;;;;;5013075;28;20273;-76
2022/09/30 00:59:16;;;;;;;2.13;1.87;;;9.70;99.90;;;;;;5002012;28;20173;-76
2022/09/30 01:01:43;;;;;;;3.90;1.83;;;9.70;99.90;;;;;;5016693;28;20240;-76
2022/09/30 01:04:15;;;;;;;3.37;1.80;;;9.60;99.90;;;;;;5015496;28;20210;-75
2022/09/30 01:06:41;;;;;;;2.23;1.83;;;9.60;99.90;;;;;;5016000;28;20181;-77
2022/09/30 01:09:09;;;;;;;2.50;2.10;;;9.60;99.90;;;;;;5017738;28;20273;-76
2022/09/30 01:11:35;;;;;;;2.63;2.20;;;9.50;99.90;;;;;;5020086;28;20246;-74
2022/09/30 01:14:09;;;;;;;2.17;1.90;;;9.50;99.90;;;;;;5012559;28;20179;-76
2022/09/30 01:16:44;;;;;;;3.97;1.80;;;9.40;99.90;;;;;;4998724;28;20276;-77
2022/09/30 01:19:46;;;;;;;2.00;1.70;;;9.40;99.90;;;;;;5015226;28;20285;-77
2022/09/30 01:22:31;;;;;;;3.60;1.93;;;9.40;99.90;;;;;;5030395;28;20202;-76
2022/09/30 01:25:14;;;;;;;3.20;1.97;;;9.40;99.90;;;;;;5037214;28;20182;-78
2022/09/30 01:27:58;;;;;;;2.73;1.80;;;9.30;99.90;;;;;;5015930;28;20182;-76
2022/09/30 01:31:03;;;;;;;2.53;1.90;;;9.30;99.90;;;;;;5016131;28;20190;-76
2022/09/30 01:34:08;;;;;;;1.70;1.60;;;9.30;99.90;;;;;;5002489;28;20174;-77
2022/09/30 01:36:49;;;;;;;2.60;2.00;;;9.30;99.90;;;;;;5015041;28;20213;-76
2022/09/30 01:39:34;;;;;;;2.50;1.90;;;9.30;99.90;;;;;;5002464;28;20178;-78
2022/09/30 01:42:19;;;;;;;2.67;1.87;;;9.30;99.90;;;;;;5012662;28;20258;-78
2022/09/30 01:45:03;;;;;;;2.90;1.93;;;9.20;99.90;;;;;;5011694;28;20170;-77
2022/09/30 01:47:40;;;;;;;2.57;1.70;;;9.20;99.90;;;;;;4996290;28;20206;-77
2022/09/30 01:50:22;;;;;;;2.40;1.60;;;9.20;99.90;;;;;;5013774;28;20162;-78
2022/09/30 01:53:11;;;;;;;1.60;1.40;;;9.20;99.90;;;;;;5006247;28;20179;-78
2022/09/30 01:56:00;;;;;;;2.67;1.83;;;9.10;99.90;;;;;;5001698;28;20230;-77
2022/09/30 01:58:54;;;;;;;2.20;1.70;;;9.10;99.90;;;;;;5024601;28;20183;-78
2022/09/30 02:01:35;;;;;;;1.50;1.33;;;9.10;99.90;;;;;;5012937;28;20182;-78
2022/09/30 02:04:08;;;;;;;2.70;1.77;;;9.10;99.90;;;;;;5007839;28;20190;-77
2022/09/30 02:06:41;;;;;;;3.10;1.70;;;9.00;99.90;;;;;;5014731;28;20232;-77
2022/09/30 02:09:21;;;;;;;2.20;1.43;;;9.00;99.90;;;;;;5018887;28;20175;-74
2022/09/30 02:11:51;;;;;;;1.77;1.63;;;9.00;99.90;;;;;;5045207;28;20190;-76
2022/09/30 02:14:32;;;;;;;2.30;1.50;;;9.00;99.90;;;;;;4999707;28;20178;-77
2022/09/30 02:17:03;;;;;;;2.03;1.60;;;9.00;99.90;;;;;;5004553;28;20178;-77
2022/09/30 02:19:42;;;;;;;2.77;1.83;;;8.90;99.90;;;;;;4997139;28;20230;-76
2022/09/30 02:22:15;;;;;;;3.30;1.80;;;8.90;99.90;;;;;;5046833;28;20214;-72
2022/09/30 02:24:44;;;;;;;2.03;1.60;;;8.90;99.90;;;;;;5030429;28;20175;-78
2022/09/30 02:27:24;;;;;;;1.83;1.60;;;9.00;99.90;;;;;;5016525;28;20289;-77
2022/09/30 02:29:55;;;;;;;2.50;1.80;;;8.90;99.90;;;;;;5015066;28;20162;-77
2022/09/30 02:32:29;;;;;;;1.90;1.70;;;8.80;99.90;;;;;;5014900;28;20182;-77
2022/09/30 02:35:20;;;;;;;2.50;1.90;;;8.80;99.90;;;;;;5029014;28;20214;-78
2022/09/30 02:37:51;;;;;;;2.73;1.53;;;8.80;99.90;;;;;;5005243;28;20174;-77
2022/09/30 02:40:29;;;;;;;2.90;2.07;;;8.80;99.90;;;;;;5030489;28;20477;-77
2022/09/30 02:42:55;;;;;;;3.23;1.80;;;8.80;99.90;;;;;;5024467;28;20194;-77
2022/09/30 02:45:22;;;;;;;1.93;1.60;;;8.70;99.90;;;;;;5005582;28;20186;-76
2022/09/30 02:48:00;;;;;;;2.93;1.87;;;8.70;99.90;;;;;;5018944;28;20178;-78
2022/09/30 02:50:28;;;;;;;2.63;1.90;;;8.70;99.90;;;;;;5014272;28;20178;-77
2022/09/30 02:52:59;;;;;;;2.20;1.70;;;8.70;99.90;;;;;;5014899;28;20178;-77
2022/09/30 02:55:51;;;;;;;2.93;1.70;;;8.70;99.90;;;;;;5013554;28;20194;-78
2022/09/30 02:58:25;;;;;;;1.80;1.60;;;8.70;99.90;;;;;;5014173;28;20178;-77
2022/09/30 03:00:53;;;;;;;2.17;1.63;;;8.70;99.90;;;;;;5024903;28;20204;-77
2022/09/30 03:03:50;;;;;;;2.63;1.90;;;8.60;99.90;;;;;;5006280;28;20174;-77
2022/09/30 03:06:16;;;;;;;2.43;1.90;;;8.60;99.90;;;;;;4998059;28;20194;-78
2022/09/30 03:08:42;;;;;;;2.10;1.80;;;8.60;99.90;;;;;;5014437;28;20300;-77
2022/09/30 03:11:15;;;;;;;2.50;1.97;;;8.60;99.90;;;;;;5010851;28;20206;-77
2022/09/30 03:14:01;;;;;;;1.70;1.50;;;8.50;99.90;;;;;;5002991;28;20186;-78
2022/09/30 03:16:30;;;;;;;2.13;1.53;;;8.50;99.90;;;;;;5014121;28;20207;-77
2022/09/30 03:19:14;;;;;;;2.47;1.50;;;8.50;99.90;;;;;;5014254;28;20175;-77
2022/09/30 03:21:54;;;;;;;2.27;1.60;;;8.40;99.90;;;;;;5013446;28;20166;-78
2022/09/30 03:24:55;;;;;;;2.73;1.73;;;8.40;99.90;;;;;;5013591;28;20210;-78
2022/09/30 03:27:23;;;;;;;2.27;1.70;;;8.40;99.90;;;;;;5001044;28;20187;-78
2022/09/30 03:30:05;;;;;;;2.27;2.07;;;8.40;99.90;;;;;;5005485;28;20187;-79
2022/09/30 03:32:49;;;;;;;2.17;1.80;;;8.40;99.90;;;;;;5016167;28;20234;-77
2022/09/30 03:35:52;;;;;;;2.53;2.03;;;8.30;99.90;;;;;;5013551;28;20210;-78
2022/09/30 03:38:22;;;;;;;2.70;1.77;;;8.30;99.90;;;;;;4998627;28;20214;-76
2022/09/30 03:41:13;;;;;;;2.00;1.80;;;8.30;99.90;;;;;;4999786;28;20202;-78
2022/09/30 03:43:43;;;;;;;2.67;2.13;;;8.30;99.90;;;;;;5001648;28;20187;-77
2022/09/30 03:46:26;;;;;;;3.63;2.20;;;8.30;99.90;;;;;;5016715;28;20182;-78
2022/09/30 03:48:57;;;;;;;2.13;1.93;;;8.30;99.90;;;;;;4999793;28;20210;-77
2022/09/30 03:51:28;;;;;;;2.73;2.20;;;8.30;99.90;;;;;;5012019;28;20203;-75
2022/09/30 03:53:54;;;;;;;2.50;1.90;;;8.30;99.90;;;;;;5013720;28;20175;-76
2022/09/30 03:56:28;;;;;;;2.10;1.90;;;8.20;99.90;;;;;;5029481;28;20194;-78
2022/09/30 03:58:55;;;;;;;2.40;1.73;;;8.20;99.90;;;;;;5013327;28;20175;-77
2022/09/30 04:01:22;;;;;;;2.60;1.73;;;8.20;99.90;;;;;;5010546;28;20187;-78
2022/09/30 04:03:51;;;;;;;2.20;1.90;;;8.20;99.90;;;;;;4997328;28;20195;-77
2022/09/30 04:06:18;;;;;;;2.37;1.87;;;8.10;99.90;;;;;;5009522;28;20205;-77
2022/09/30 04:08:46;;;;;;;3.27;2.07;;;8.10;99.90;;;;;;5013559;28;20218;-79
2022/09/30 04:11:11;;;;;;;2.03;1.83;;;8.10;99.90;;;;;;5013922;28;20181;-77
2022/09/30 04:13:38;;;;;;;3.03;2.07;;;8.10;99.90;;;;;;5013734;28;20207;-77
2022/09/30 04:16:04;;;;;;;2.27;2.00;;;8.10;99.90;;;;;;5013771;28;20198;-79
2022/09/30 04:18:32;;;;;;;2.20;1.97;;;8.10;99.90;;;;;;5008266;28;20207;-78
2022/09/30 04:20:58;;;;;;;3.17;2.20;;;8.10;99.90;;;;;;5011271;28;20198;-78
2022/09/30 04:23:26;;;;;;;3.37;1.93;;;8.10;99.90;;;;;;5018121;28;20171;-78
2022/09/30 04:25:53;;;;;;;3.90;2.03;;;8.00;99.90;;;;;;5016539;28;20174;-77
2022/09/30 04:28:20;;;;;;;3.23;2.00;;;8.00;99.90;;;;;;5009524;28;20187;-77
2022/09/30 04:30:48;;;;;;;3.57;2.40;;;8.10;99.90;;;;;;5003341;28;20194;-74
2022/09/30 04:33:13;;;;;;;3.20;2.30;;;8.00;99.90;;;;;;5012678;28;20257;-75
2022/09/30 04:35:41;;;;;;;3.50;2.37;;;8.00;99.90;;;;;;5013575;28;20195;-77
2022/09/30 04:38:09;;;;;;;2.60;2.30;;;8.00;99.90;;;;;;5013111;28;20179;-77
2022/09/30 04:40:36;;;;;;;2.43;2.23;;;8.00;99.90;;;;;;5007430;28;20194;-76
2022/09/30 04:43:05;;;;;;;12.50;7.60;;;8.00;99.90;;;;;;5012317;28;20179;-77
2022/09/30 04:45:30;;;;;;;10.90;7.17;;;8.10;99.90;;;;;;4999553;28;20199;-78
2022/09/30 04:47:56;;;;;;;9.47;6.47;;;8.00;99.90;;;;;;5014334;28;20183;-77
2022/09/30 04:50:21;;;;;;;6.47;4.67;;;8.00;99.90;;;;;;5016224;28;20193;-70
2022/09/30 04:52:47;;;;;;;5.00;3.77;;;8.00;99.90;;;;;;5016689;28;20178;-71
2022/09/30 04:55:15;;;;;;;4.93;3.20;;;8.00;99.90;;;;;;5016389;28;20217;-68
2022/09/30 04:57:44;;;;;;;4.07;3.17;;;8.00;99.90;;;;;;5016872;28;20171;-71
2022/09/30 05:00:10;;;;;;;3.40;2.80;;;8.00;99.90;;;;;;5016526;28;20179;-71
2022/09/30 05:02:36;;;;;;;2.93;2.43;;;7.90;99.90;;;;;;5016557;28;20171;-77
2022/09/30 05:05:03;;;;;;;5.53;3.93;;;7.90;99.90;;;;;;5015366;28;20316;-78
2022/09/30 05:07:31;;;;;;;3.67;3.13;;;7.90;99.90;;;;;;5015896;28;20182;-78
2022/09/30 05:09:59;;;;;;;3.83;2.70;;;7.90;99.90;;;;;;5016362;28;20208;-78
2022/09/30 05:12:25;;;;;;;3.67;2.60;;;7.80;99.90;;;;;;5015964;28;20190;-76
2022/09/30 05:14:55;;;;;;;3.40;2.40;;;7.90;99.90;;;;;;5012027;28;20183;-78
2022/09/30 05:17:21;;;;;;;3.50;2.37;;;7.90;99.90;;;;;;5010645;28;20203;-78
2022/09/30 05:19:49;;;;;;;4.57;2.10;;;7.80;99.90;;;;;;5009353;28;20189;-78
2022/09/30 05:22:17;;;;;;;3.43;2.23;;;7.80;99.90;;;;;;5023662;28;20240;-79
2022/09/30 05:24:43;;;;;;;3.07;2.20;;;7.80;99.90;;;;;;5000058;28;20195;-79
2022/09/30 05:27:11;;;;;;;2.83;2.40;;;7.90;99.90;;;;;;5012641;28;20167;-79
2022/09/30 05:29:39;;;;;;;3.20;2.00;;;7.90;99.90;;;;;;5015827;28;20243;-83
2022/09/30 05:32:06;;;;;;;2.60;2.07;;;7.80;99.90;;;;;;5015853;28;20178;-75
2022/09/30 05:34:35;;;;;;;3.00;2.33;;;7.80;99.90;;;;;;5012101;28;20186;-79
2022/09/30 05:37:01;;;;;;;2.93;2.37;;;7.80;99.90;;;;;;4996157;28;20179;-75
2022/09/30 05:39:32;;;;;;;3.60;2.53;;;7.80;99.90;;;;;;4995802;28;20190;-77
2022/09/30 05:41:58;;;;;;;3.30;2.23;;;7.80;99.90;;;;;;5030883;28;20238;-78
2022/09/30 05:44:26;;;;;;;3.13;2.17;;;7.80;99.90;;;;;;5015162;28;20182;-78
2022/09/30 05:46:51;;;;;;;5.07;3.60;;;7.80;99.90;;;;;;5015544;28;20232;-78
2022/09/30 05:49:20;;;;;;;5.77;3.93;;;7.80;99.90;;;;;;5015304;28;20182;-79
2022/09/30 05:51:51;;;;;;;5.40;3.70;;;7.70;99.90;;;;;;5015169;28;20233;-78
2022/09/30 05:54:16;;;;;;;4.87;3.23;;;7.70;99.90;;;;;;5015540;28;20234;-79
2022/09/30 05:56:44;;;;;;;3.70;2.90;;;7.80;99.90;;;;;;5014273;28;20297;-79
2022/09/30 05:59:10;;;;;;;13.60;7.87;;;7.80;99.90;;;;;;4995320;28;20200;-78
2022/09/30 06:01:38;;;;;;;6.83;4.70;;;7.80;99.90;;;;;;4996045;28;20242;-76
2022/09/30 06:04:04;;;;;;;5.53;4.07;;;7.80;99.90;;;;;;4995490;28;20198;-79
2022/09/30 06:06:30;;;;;;;4.33;3.60;;;7.80;99.90;;;;;;4995492;28;20200;-79
2022/09/30 06:08:55;;;;;;;6.47;3.80;;;7.80;99.90;;;;;;5011433;28;20179;-79
2022/09/30 06:11:23;;;;;;;5.33;3.37;;;7.70;99.90;;;;;;4995610;28;20183;-77
2022/09/30 06:13:52;;;;;;;3.47;3.17;;;7.70;99.90;;;;;;4997407;28;20203;-78
2022/09/30 06:16:18;;;;;;;4.30;3.47;;;7.70;99.90;;;;;;5015323;28;20205;-78
2022/09/30 06:18:44;;;;;;;3.60;2.90;;;7.70;99.90;;;;;;5015369;28;20174;-79
2022/09/30 06:21:12;;;;;;;3.80;3.00;;;7.70;99.90;;;;;;5015235;28;20360;-79
2022/09/30 06:23:38;;;;;;;4.10;3.33;;;7.70;99.90;;;;;;5016689;28;20175;-79
2022/09/30 06:26:08;;;;;;;3.90;3.23;;;7.70;99.90;;;;;;5010085;28;20202;-78
2022/09/30 06:28:36;;;;;;;4.87;3.40;;;7.70;99.90;;;;;;4994673;28;20223;-75
2022/09/30 06:31:03;;;;;;;5.47;3.30;;;7.70;99.90;;;;;;4994709;28;20206;-75
2022/09/30 06:33:30;;;;;;;4.10;3.30;;;7.70;99.90;;;;;;4995039;28;20187;-75
2022/09/30 06:35:56;;;;;;;4.63;3.57;;;7.70;99.90;;;;;;4994832;28;20218;-77
2022/09/30 06:38:22;;;;;;;5.37;4.37;;;7.80;99.90;;;;;;4994670;28;20262;-78
2022/09/30 06:40:49;;;;;;;6.93;5.23;;;7.80;99.90;;;;;;5009072;28;20210;-77
2022/09/30 06:43:21;;;;;;;7.53;5.33;;;7.80;99.90;;;;;;5014872;28;20198;-76
2022/09/30 06:45:50;;;;;;;7.23;5.37;;;7.80;99.90;;;;;;5001129;28;20265;-78
2022/09/30 06:48:19;;;;;;;6.30;5.07;;;7.80;99.90;;;;;;4997166;28;20191;-77
2022/09/30 06:50:45;;;;;;;6.67;5.10;;;7.80;99.90;;;;;;5012511;28;20207;-76
2022/09/30 06:53:13;;;;;;;8.07;4.43;;;7.80;99.90;;;;;;5012536;28;20411;-77
2022/09/30 06:55:44;;;;;;;6.37;5.07;;;7.80;99.90;;;;;;5012653;28;20209;-78
2022/09/30 06:58:14;;;;;;;6.03;4.90;;;7.90;99.90;;;;;;5015794;28;20221;-78
2022/09/30 07:00:39;;;;;;;5.30;4.57;;;7.90;99.90;;;;;;5031026;28;20248;-78
2022/09/30 07:03:14;;;;;;;6.90;5.03;;;7.90;99.90;;;;;;5030756;28;20182;-77
2022/09/30 07:05:40;;;;;;;5.77;4.80;;;7.90;99.90;;;;;;5030906;28;20259;-78
2022/09/30 07:08:06;;;;;;;5.57;4.47;;;8.00;99.90;;;;;;5010612;28;20187;-78
2022/09/30 07:10:33;;;;;;;6.57;5.10;;;8.00;99.90;;;;;;4995112;28;20203;-77
2022/09/30 07:13:01;;;;;;;5.60;5.00;;;8.00;99.90;;;;;;4994749;28;20183;-77
2022/09/30 07:15:26;;;;;;;6.30;5.10;;;8.10;99.90;;;;;;4995926;28;20191;-78
2022/09/30 07:17:53;;;;;;;6.30;5.10;;;8.20;99.90;;;;;;4995693;28;20210;-74
2022/09/30 07:20:19;;;;;;;7.53;5.77;;;8.20;99.90;;;;;;4995265;28;20180;-77
2022/09/30 07:22:45;;;;;;;6.33;5.27;;;8.20;99.90;;;;;;5002690;28;20218;-77
2022/09/30 07:25:13;;;;;;;5.67;4.87;;;8.30;99.90;;;;;;5013383;28;20179;-77
2022/09/30 07:27:41;;;;;;;7.73;5.83;;;8.40;99.90;;;;;;5014380;28;20206;-77
2022/09/30 07:30:08;;;;;;;7.13;5.43;;;8.30;99.90;;;;;;5014596;28;20243;-76
2022/09/30 07:32:36;;;;;;;5.60;4.83;;;8.40;99.90;;;;;;5014883;28;20182;-77
2022/09/30 07:35:03;;;;;;;5.43;4.67;;;8.50;99.90;;;;;;5014998;28;20207;-77
2022/09/30 07:37:32;;;;;;;7.43;4.50;;;8.50;99.90;;;;;;5015826;28;20183;-77
2022/09/30 07:39:57;;;;;;;4.80;4.00;;;8.60;99.90;;;;;;5014819;28;20237;-77
2022/09/30 07:42:23;;;;;;;6.40;4.60;;;8.60;99.90;;;;;;5015613;28;20186;-78
2022/09/30 07:44:51;;;;;;;6.97;4.60;;;8.70;99.90;;;;;;5015673;28;20170;-78
2022/09/30 07:47:18;;;;;;;5.10;4.43;;;8.70;99.90;;;;;;5016064;28;20201;-77
2022/09/30 07:49:44;;;;;;;7.00;4.80;;;8.80;99.90;;;;;;5016001;28;20249;-78
2022/09/30 07:52:15;;;;;;;5.37;4.50;;;8.80;99.90;;;;;;5015105;28;20266;-75
2022/09/30 07:54:41;;;;;;;5.20;4.50;;;8.90;99.90;;;;;;5016395;28;20203;-78
2022/09/30 07:57:12;;;;;;;6.97;5.13;;;9.00;99.90;;;;;;5018204;28;20195;-78
2022/09/30 07:59:41;;;;;;;7.10;5.47;;;9.10;99.90;;;;;;5019336;28;20194;-78
2022/09/30 08:02:13;;;;;;;7.20;4.93;;;9.10;99.90;;;;;;5018891;28;20274;-75
2022/09/30 08:04:39;;;;;;;7.37;5.43;;;9.20;99.90;;;;;;5018935;28;20186;-76
2022/09/30 08:07:04;;;;;;;7.57;5.97;;;9.30;99.90;;;;;;5031590;28;20186;-78
2022/09/30 08:09:35;;;;;;;6.27;5.27;;;9.40;99.90;;;;;;5001519;28;20190;-78
2022/09/30 08:12:04;;;;;;;7.53;6.20;;;9.50;99.90;;;;;;4999808;28;20215;-77
2022/09/30 08:14:30;;;;;;;7.03;5.67;;;9.50;99.90;;;;;;5033222;28;20257;-76
2022/09/30 08:16:57;;;;;;;8.77;7.10;;;9.60;99.90;;;;;;5019697;28;20234;-77
2022/09/30 08:19:24;;;;;;;8.40;6.10;;;9.70;99.90;;;;;;5017822;28;20173;-77
2022/09/30 08:21:53;;;;;;;8.97;6.67;;;9.80;99.90;;;;;;5011126;28;20207;-77
2022/09/30 08:24:19;;;;;;;9.47;5.53;;;9.80;99.90;;;;;;5012206;28;20178;-77
2022/09/30 08:26:47;;;;;;;6.33;5.47;;;9.90;99.90;;;;;;5017787;28;20190;-76
2022/09/30 08:29:13;;;;;;;7.27;5.33;;;10.00;99.90;;;;;;5018462;28;20210;-77
2022/09/30 08:31:44;;;;;;;6.67;5.37;;;10.10;99.90;;;;;;5017860;28;20191;-77
2022/09/30 08:34:10;;;;;;;8.27;5.77;;;10.10;99.90;;;;;;5018232;28;20203;-77
2022/09/30 08:36:39;;;;;;;7.23;6.23;;;10.20;99.90;;;;;;5017714;28;20195;-77
2022/09/30 08:39:04;;;;;;;7.77;5.57;;;10.30;99.90;;;;;;4998842;28;20195;-76
2022/09/30 08:41:48;;;;;;;6.77;5.27;;;10.40;99.90;;;;;;4998014;28;20178;-76
2022/09/30 08:44:41;;;;;;;7.88;5.40;;;10.50;99.90;;;;;;4998762;28;20245;-78
2022/09/30 08:47:26;;;;;;;6.80;5.30;;;10.60;99.90;;;;;;4998802;28;20172;-78
2022/09/30 08:50:13;;;;;;;6.18;5.28;;;10.70;99.90;;;;;;4996867;28;20243;-77
2022/09/30 08:52:42;;;;;;;6.22;5.53;;;10.80;99.90;;;;;;5000858;28;20176;-78
2022/09/30 08:55:34;;;;;;;5.95;5.20;;;10.90;99.90;;;;;;5017053;28;20195;-77
2022/09/30 08:58:02;;;;;;;6.32;5.25;;;11.00;99.90;;;;;;4999347;28;20184;-73
2022/09/30 09:00:33;;;;;;;5.72;4.93;;;11.10;99.90;;;;;;5016412;28;20180;-77
2022/09/30 09:03:02;;;;;;;6.90;5.15;;;11.10;99.90;;;;;;5016206;28;20203;-78
2022/09/30 09:06:09;;;;;;;7.13;5.68;;;11.30;99.90;;;;;;5001165;28;20207;-78
2022/09/30 09:08:55;;;;;;;6.95;5.05;;;11.40;99.90;;;;;;4998309;28;20274;-77
2022/09/30 09:11:49;;;;;;;6.15;5.03;;;11.50;99.90;;;;;;5014744;28;20172;-78
2022/09/30 09:14:33;;;;;;;5.53;4.88;;;11.60;99.90;;;;;;4999354;28;20206;-77
2022/09/30 09:17:32;;;;;;;5.72;5.05;;;11.70;99.90;;;;;;5014823;28;20202;-77
2022/09/30 09:20:24;;;;;;;5.65;5.00;;;11.90;99.90;;;;;;5016826;28;20234;-75
2022/09/30 09:22:51;;;;;;;8.48;4.55;;;12.00;99.90;;;;;;5002848;28;20175;-76
2022/09/30 09:25:27;;;;;;;7.43;5.68;;;12.10;99.90;;;;;;4998977;28;20257;-73
2022/09/30 09:27:59;;;;;;;6.03;5.00;;;12.60;99.90;;;;;;5004399;28;20193;-77
2022/09/30 09:30:31;;;;;;;5.78;5.10;;;13.30;99.90;;;;;;5017671;28;20211;-76
2022/09/30 09:33:18;;;;;;;4.38;3.83;;;14.20;99.90;;;;;;5022157;28;20163;-75
2022/09/30 09:36:02;;;;;;;4.80;4.05;;;15.00;99.90;;;;;;5017713;28;20210;-75
2022/09/30 09:38:34;;;;;;;4.90;4.10;;;15.90;99.90;;;;;;5012971;28;20246;-76
2022/09/30 09:41:09;;;;;;;4.88;4.28;;;16.60;99.90;;;;;;5014269;28;20159;-75
2022/09/30 09:43:49;;;;;;;4.25;3.80;;;17.30;99.90;;;;;;5013977;28;20185;-76
2022/09/30 09:46:25;;;;;;;3.92;3.53;;;17.80;99.90;;;;;;4996902;28;20210;-77
2022/09/30 09:49:19;;;;;;;3.97;3.38;;;18.40;99.90;;;;;;5000656;28;20282;-76
2022/09/30 09:52:14;;;;;;;3.30;3.00;;;18.90;99.90;;;;;;5023382;28;20210;-75
2022/09/30 09:54:44;;;;;;;4.40;3.13;;;19.30;99.90;;;;;;5020959;28;20222;-69
2022/09/30 09:57:14;;;;;;;3.35;3.05;;;19.70;99.90;;;;;;5025565;28;20192;-73
2022/09/30 10:03:17;;;;;;;2.88;2.60;;;20.30;99.90;;;;;;5001892;28;20286;-73
2022/09/30 10:05:58;;;;;;;4.45;2.78;;;20.60;99.90;;;;;;5017535;28;20226;-75
2022/09/30 10:08:27;;;;;;;2.97;2.40;;;20.90;99.90;;;;;;5022839;28;20190;-75
2022/09/30 10:11:22;;;;;;;3.47;2.63;;;21.10;99.90;;;;;;5018613;28;20203;-78
2022/09/30 10:13:49;;;;;;;4.47;2.65;;;21.30;99.90;;;;;;5022969;28;20182;-74
2022/09/30 10:16:29;;;;;;;3.10;2.80;;;21.40;99.90;;;;;;5005761;28;20237;-73
2022/09/30 10:18:56;;;;;;;3.08;2.78;;;21.50;99.90;;;;;;5009278;28;20205;-77
2022/09/30 10:21:25;;;;;;;5.95;2.80;;;21.60;99.90;;;;;;5001318;28;20226;-77
2022/09/30 10:23:52;;;;;;;2.85;2.55;;;21.70;99.90;;;;;;5002119;28;20203;-74
2022/09/30 10:26:24;;;;;;;2.92;2.38;;;21.80;99.90;;;;;;5021296;28;20183;-75
2022/09/30 10:28:51;;;;;;;2.40;2.10;;;21.90;99.90;;;;;;5017540;28;20202;-75
2022/09/30 10:31:25;;;;;;;2.90;2.47;;;22.10;99.90;;;;;;5019241;28;20172;-73
2022/09/30 10:33:59;;;;;;;3.08;2.40;;;22.20;99.90;;;;;;5022087;28;20195;-76
2022/09/30 10:36:33;;;;;;;2.97;2.10;;;22.30;99.90;;;;;;5007132;28;20226;-75
2022/09/30 10:39:18;;;;;;;3.08;2.15;;;22.50;99.90;;;;;;5023469;28;20213;-75
2022/09/30 10:41:44;;;;;;;2.40;2.08;;;22.50;99.90;;;;;;5027057;28;20373;-75
2022/09/30 10:44:18;;;;;;;2.88;1.88;;;22.60;99.90;;;;;;5024469;28;20229;-75
2022/09/30 10:46:49;;;;;;;2.60;1.88;;;22.60;99.90;;;;;;5019907;28;20268;-73
2022/09/30 10:49:27;;;;;;;2.72;2.10;;;22.70;99.90;;;;;;5024224;28;20193;-75
2022/09/30 10:52:00;;;;;;;2.30;1.70;;;22.70;99.90;;;;;;5024452;28;20234;-75
2022/09/30 10:54:48;;;;;;;2.53;1.73;;;22.70;99.90;;;;;;5022748;28;20179;-74
2022/09/30 10:57:19;;;;;;;2.10;1.80;;;22.80;99.90;;;;;;5025427;28;20178;-76
2022/09/30 10:59:45;;;;;;;2.42;1.35;;;22.90;99.90;;;;;;5017628;28;20201;-76
2022/09/30 11:02:40;;;;;;;2.28;1.60;;;22.90;99.90;;;;;;5016837;28;20277;-75
2022/09/30 11:05:41;;;;;;;2.35;1.23;;;22.80;99.90;;;;;;5002649;28;20292;-74
2022/09/30 11:08:19;;;;;;;3.15;1.40;;;22.40;99.90;;;;;;4981247;28;20270;-74
2022/09/30 11:11:15;;;;;;;1.75;1.50;;;22.00;99.90;;;;;;4998518;28;20199;-72
2022/09/30 11:13:54;;;;;;;2.67;1.60;;;21.80;99.90;;;;;;5004102;28;20199;-71
2022/09/30 11:16:38;;;;;;;5.65;1.67;;;21.50;99.90;;;;;;5026661;28;20186;-74
2022/09/30 11:19:10;;;;;;;2.60;1.55;;;21.20;99.90;;;;;;5022356;28;20195;-73
2022/09/30 11:21:47;;;;;;;1.50;1.33;;;20.90;99.90;;;;;;5026601;28;20193;-74
2022/09/30 11:24:13;;;;;;;1.98;1.52;;;20.50;99.90;;;;;;5022173;28;20204;-74
2022/09/30 11:27:04;;;;;;;2.08;1.50;;;20.20;99.90;;;;;;5024245;28;20269;-74
2022/09/30 11:29:46;;;;;;;1.45;1.10;;;20.10;99.90;;;;;;5022753;28;20186;-76
2022/09/30 11:32:21;;;;;;;2.35;1.30;;;20.20;99.90;;;;;;5034502;28;20208;-75
2022/09/30 11:35:07;;;;;;;1.55;1.20;;;20.30;99.90;;;;;;5045046;28;20226;-71
2022/09/30 11:38:00;;;;;;;3.60;1.40;;;20.30;99.90;;;;;;5030688;28;20190;-74
2022/09/30 11:40:44;;;;;;;1.98;1.17;;;20.20;99.90;;;;;;5010783;28;20227;-72
2022/09/30 11:43:43;;;;;;;2.25;1.10;;;20.10;99.90;;;;;;5022368;28;20155;-75
2022/09/30 11:46:51;;;;;;;1.70;1.30;;;19.90;99.90;;;;;;5203162;23;20311;-70
2022/09/30 11:49:31;;;;;;;1.70;1.20;;;19.80;99.90;;;;;;5004642;28;20184;-75
2022/09/30 11:52:06;;;;;;;1.75;1.13;;;19.80;99.90;;;;;;5002451;28;20171;-76
2022/09/30 11:54:56;;;;;;;1.58;1.20;;;19.90;99.90;;;;;;5008084;28;20182;-76
2022/09/30 11:57:34;;;;;;;1.60;1.00;;;20.10;99.90;;;;;;5020640;28;20174;-76
2022/09/30 12:00:17;;;;;;;3.05;1.20;;;20.40;99.90;;;;;;5017875;28;20227;-76
2022/09/30 12:02:58;;;;;;;1.15;0.80;;;20.70;99.90;;;;;;5018012;28;20159;-75
2022/09/30 12:05:40;;;;;;;1.25;0.88;;;20.80;99.90;;;;;;5020941;28;20217;-75
2022/09/30 12:08:15;;;;;;;1.42;1.00;;;20.80;99.90;;;;;;5019329;28;20225;-75
2022/09/30 12:10:54;;;;;;;1.60;0.80;;;20.60;99.90;;;;;;5018765;28;20208;-76
2022/09/30 12:13:25;;;;;;;1.27;0.68;;;20.40;99.90;;;;;;5012683;28;20163;-73
2022/09/30 12:15:55;;;;;;;1.33;0.60;;;20.40;99.90;;;;;;5028219;28;20214;-76
2022/09/30 12:18:33;;;;;;;0.98;0.73;;;20.40;99.90;;;;;;5005381;28;20235;-74
2022/09/30 12:21:38;;;;;;;1.08;0.65;;;20.50;99.90;;;;;;4998873;28;20195;-77
2022/09/30 12:24:28;;;;;;;1.10;0.75;;;20.50;99.90;;;;;;5014366;28;20206;-77
2022/09/30 12:26:54;;;;;;;1.10;0.75;;;20.50;99.90;;;;;;5001018;28;20199;-76
2022/09/30 12:32:21;;;;;;;1.27;0.70;;;20.30;99.90;;;;;;5000597;28;20162;-76
2022/09/30 12:35:00;;;;;;;1.10;0.70;;;20.40;99.90;;;;;;4998404;28;20226;-77
2022/09/30 12:37:47;;;;;;;1.67;0.90;;;20.50;99.90;;;;;;4999604;28;20193;-75
2022/09/30 12:40:23;;;;;;;1.30;0.90;;;20.70;99.90;;;;;;4998720;28;20171;-75
2022/09/30 12:43:37;;;;;;;1.23;0.50;;;20.90;99.90;;;;;;4999868;28;20243;-77
2022/09/30 12:46:30;;;;;;;2.13;0.65;;;21.00;99.90;;;;;;4973012;28;20191;-76
2022/09/30 12:49:04;;;;;;;1.23;0.80;;;21.20;99.90;;;;;;5015595;28;20230;-76
2022/09/30 12:51:40;;;;;;;1.85;0.90;;;21.20;99.90;;;;;;5000816;28;20179;-75
2022/09/30 12:54:24;;;;;;;2.45;0.85;;;21.20;99.90;;;;;;5005276;28;20179;-75
2022/09/30 12:56:59;;;;;;;0.88;0.60;;;21.20;99.90;;;;;;5001728;28;20258;-76
2022/09/30 12:59:29;;;;;;;0.68;0.55;;;21.20;99.90;;;;;;5002708;28;20167;-76
2022/09/30 13:02:00;;;;;;;0.95;0.63;;;21.30;99.90;;;;;;4997987;28;20227;-75
2022/09/30 13:04:31;;;;;;;2.22;1.20;;;21.20;99.90;;;;;;4979390;28;20215;-75
2022/09/30 13:06:57;;;;;;;2.00;1.00;;;21.20;99.90;;;;;;4979772;28;20199;-78
2022/09/30 13:09:54;;;;;;;1.65;0.90;;;21.20;99.90;;;;;;4998212;28;20239;-76
2022/09/30 13:13:07;;;;;;;1.05;0.80;;;21.20;99.90;;;;;;4978861;28;20196;-75
2022/09/30 13:15:33;;;;;;;1.00;0.65;;;21.20;99.90;;;;;;4973102;28;20218;-77
2022/09/30 13:18:28;;;;;;;1.45;0.68;;;21.10;99.90;;;;;;4987996;28;20220;-75
2022/09/30 13:21:07;;;;;;;1.55;0.63;;;20.90;99.90;;;;;;5016755;28;20214;-76
2022/09/30 13:23:55;;;;;;;0.82;0.60;;;20.90;99.90;;;;;;4997432;28;20237;-77
2022/09/30 13:26:33;;;;;;;1.30;0.68;;;20.90;99.90;;;;;;4997174;28;20181;-76
2022/09/30 13:28:58;;;;;;;1.95;0.70;;;21.00;99.90;;;;;;4998743;28;20233;-76
2022/09/30 13:31:26;;;;;;;0.98;0.70;;;21.10;99.90;;;;;;4998143;28;20183;-76
2022/09/30 13:34:03;;;;;;;0.90;0.63;;;21.30;99.90;;;;;;4998195;28;20175;-75
2022/09/30 13:36:50;;;;;;;0.73;0.47;;;21.40;99.90;;;;;;5009804;28;20203;-72